Time,TemperatureF,DewpointF,PressureIn,WindDirection,WindDirectionDegrees,WindSpeedMPH,WindSpeedGustMPH,Humidity,HourlyPrecipIn,Conditions,Clouds,dailyrainin,SoftwareType,DateUTC
2014-03-07 00:01:00,-3.2,-14.8,30.38,ENE,68,0.7,0.7,57,0.00,,,0.00,WUHU216HW,2014-03-07 05:01:00,
2014-03-07 00:06:00,-4.0,-14.8,30.38,ENE,68,0.2,1.1,59,0.00,,,0.00,WUHU216HW,2014-03-07 05:06:00,
2014-03-07 00:11:00,-4.0,-14.8,30.38,North,0,0.0,1.1,59,0.00,,,0.00,WUHU216HW,2014-03-07 05:11:00,
2014-03-07 00:16:00,-4.0,-14.8,30.38,NNW,338,0.0,0.4,59,0.00,,,0.00,WUHU216HW,2014-03-07 05:16:00,
2014-03-07 00:21:00,-4.0,-14.8,30.38,NNW,338,0.0,0.4,59,0.00,,,0.00,WUHU216HW,2014-03-07 05:21:00,
2014-03-07 00:26:00,-4.0,-14.8,30.38,NNE,23,0.0,0.2,59,0.00,,,0.00,WUHU216HW,2014-03-07 05:26:00,
2014-03-07 00:31:00,-4.1,-14.9,30.38,NW,315,0.4,0.4,59,0.00,,,0.00,WUHU216HW,2014-03-07 05:31:00,
2014-03-07 00:36:00,-4.5,-15.3,30.38,NNW,338,0.2,1.6,59,0.00,,,0.00,WUHU216HW,2014-03-07 05:36:00,
2014-03-07 00:41:00,-4.7,-15.5,30.37,NE,45,0.9,1.6,59,0.00,,,0.00,WUHU216HW,2014-03-07 05:41:00,
2014-03-07 00:46:00,-5.6,-16.4,30.37,ENE,68,0.0,1.1,59,0.00,,,0.00,WUHU216HW,2014-03-07 05:46:00,
2014-03-07 00:51:00,-5.4,-16.2,30.37,ESE,113,0.0,0.9,59,0.00,,,0.00,WUHU216HW,2014-03-07 05:51:00,
2014-03-07 00:56:00,-5.4,-16.2,30.36,North,0,0.0,0.0,59,0.00,,,0.00,WUHU216HW,2014-03-07 05:56:00,
2014-03-07 01:01:00,-5.8,-16.2,30.37,NE,45,0.0,0.2,60,0.00,,,0.00,WUHU216HW,2014-03-07 06:01:00,
2014-03-07 01:06:00,-6.1,-16.6,30.36,ENE,68,0.0,0.2,60,0.00,,,0.00,WUHU216HW,2014-03-07 06:06:00,
2014-03-07 01:11:00,-6.1,-16.6,30.37,NNE,23,0.0,0.4,60,0.00,,,0.00,WUHU216HW,2014-03-07 06:11:00,
2014-03-07 01:16:00,-6.1,-16.6,30.36,NNE,23,0.0,0.4,60,0.00,,,0.00,WUHU216HW,2014-03-07 06:16:00,
2014-03-07 01:21:00,-6.1,-16.2,30.36,NNE,23,0.0,0.2,61,0.00,,,0.00,WUHU216HW,2014-03-07 06:21:00,
2014-03-07 01:26:00,-6.1,-16.2,30.36,NW,315,0.7,0.7,61,0.00,,,0.00,WUHU216HW,2014-03-07 06:26:00,
2014-03-07 01:31:00,-6.3,-16.4,30.36,NW,315,0.4,0.9,61,0.00,,,0.00,WUHU216HW,2014-03-07 06:31:00,
2014-03-07 01:36:00,-6.5,-16.6,30.36,NNW,338,0.0,0.9,61,0.00,,,0.00,WUHU216HW,2014-03-07 06:36:00,
2014-03-07 01:41:00,-6.5,-16.6,30.36,North,0,0.0,0.4,61,0.00,,,0.00,WUHU216HW,2014-03-07 06:41:00,
2014-03-07 01:46:00,-6.8,-16.8,30.36,North,0,0.0,0.2,61,0.00,,,0.00,WUHU216HW,2014-03-07 06:46:00,
2014-03-07 01:51:00,-6.8,-16.8,30.36,North,0,0.0,0.2,61,0.00,,,0.00,WUHU216HW,2014-03-07 06:51:00,
2014-03-07 01:56:00,-6.7,-16.7,30.36,NNE,23,0.0,0.2,61,0.00,,,0.00,WUHU216HW,2014-03-07 06:56:00,
2014-03-07 02:01:00,-7.0,-17.4,30.35,NNE,23,0.0,0.2,60,0.00,,,0.00,WUHU216HW,2014-03-07 07:01:00,
2014-03-07 02:06:00,-7.0,-17.0,30.35,North,0,0.0,0.0,61,0.00,,,0.00,WUHU216HW,2014-03-07 07:06:00,
2014-03-07 02:11:00,-7.4,-17.4,30.35,NNW,338,0.0,0.0,61,0.00,,,0.00,WUHU216HW,2014-03-07 07:11:00,
2014-03-07 02:16:00,-7.4,-17.4,30.35,NNW,338,0.0,0.0,61,0.00,,,0.00,WUHU216HW,2014-03-07 07:16:00,
2014-03-07 02:21:00,-7.6,-17.5,30.35,North,0,0.0,0.4,61,0.00,,,0.00,WUHU216HW,2014-03-07 07:21:00,
2014-03-07 02:26:00,-7.7,-17.7,30.34,NNE,23,0.0,0.9,61,0.00,,,0.00,WUHU216HW,2014-03-07 07:26:00,
2014-03-07 02:31:00,-7.7,-17.7,30.34,NW,315,0.4,0.9,61,0.00,,,0.00,WUHU216HW,2014-03-07 07:31:00,
2014-03-07 02:36:00,-7.9,-17.9,30.34,NNW,338,0.0,0.4,61,0.00,,,0.00,WUHU216HW,2014-03-07 07:36:00,
2014-03-07 02:41:00,-8.3,-17.9,30.34,ENE,68,0.0,1.1,62,0.00,,,0.00,WUHU216HW,2014-03-07 07:41:00,
2014-03-07 02:46:00,-8.8,-18.4,30.33,East,90,0.0,1.1,62,0.00,,,0.00,WUHU216HW,2014-03-07 07:46:00,
2014-03-07 02:51:00,-8.8,-18.4,30.33,North,0,0.4,0.4,62,0.00,,,0.00,WUHU216HW,2014-03-07 07:51:00,
2014-03-07 02:56:00,-8.8,-18.4,30.33,North,0,0.0,0.4,62,0.00,,,0.00,WUHU216HW,2014-03-07 07:56:00,
2014-03-07 03:01:00,-8.6,-18.3,30.32,North,0,0.0,0.4,62,0.00,,,0.00,WUHU216HW,2014-03-07 08:01:00,
2014-03-07 03:06:00,-8.5,-18.1,30.32,NW,315,0.4,0.7,62,0.00,,,0.00,WUHU216HW,2014-03-07 08:06:00,
2014-03-07 03:11:00,-8.8,-18.4,30.32,NNW,338,0.0,0.7,62,0.00,,,0.00,WUHU216HW,2014-03-07 08:11:00,
2014-03-07 03:16:00,-9.0,-18.6,30.32,North,0,0.0,0.4,62,0.00,,,0.00,WUHU216HW,2014-03-07 08:16:00,
2014-03-07 03:21:00,-9.2,-18.8,30.32,NE,45,1.1,1.1,62,0.00,,,0.00,WUHU216HW,2014-03-07 08:21:00,
2014-03-07 03:26:00,-9.7,-19.3,30.32,North,0,0.4,1.1,62,0.00,,,0.00,WUHU216HW,2014-03-07 08:26:00,
2014-03-07 03:31:00,-9.9,-19.5,30.32,NNE,23,0.0,1.1,62,0.00,,,0.00,WUHU216HW,2014-03-07 08:31:00,
2014-03-07 03:36:00,-9.7,-19.3,30.32,NNE,23,0.0,0.4,62,0.00,,,0.00,WUHU216HW,2014-03-07 08:36:00,
2014-03-07 03:41:00,-9.7,-19.3,30.32,NNE,23,0.2,0.4,62,0.00,,,0.00,WUHU216HW,2014-03-07 08:41:00,
2014-03-07 03:46:00,-10.1,-19.7,30.31,North,0,0.0,0.4,62,0.00,,,0.00,WUHU216HW,2014-03-07 08:46:00,
2014-03-07 03:51:00,-10.4,-20.0,30.31,North,0,0.2,0.4,62,0.00,,,0.00,WUHU216HW,2014-03-07 08:51:00,
2014-03-07 03:56:00,-10.4,-20.0,30.31,North,0,0.0,0.2,62,0.00,,,0.00,WUHU216HW,2014-03-07 08:56:00,
2014-03-07 04:01:00,-10.4,-20.0,30.31,NW,315,0.0,0.4,62,0.00,,,0.00,WUHU216HW,2014-03-07 09:01:00,
2014-03-07 04:06:00,-10.1,-19.7,30.31,WNW,293,0.0,0.4,62,0.00,,,0.00,WUHU216HW,2014-03-07 09:06:00,
2014-03-07 04:11:00,-10.1,-19.7,30.31,NNE,23,0.4,0.4,62,0.00,,,0.00,WUHU216HW,2014-03-07 09:11:00,
2014-03-07 04:16:00,-10.4,-20.0,30.31,NNE,23,0.0,0.4,62,0.00,,,0.00,WUHU216HW,2014-03-07 09:16:00,
2014-03-07 04:21:00,-10.6,-20.1,30.30,NNW,338,0.0,0.4,62,0.00,,,0.00,WUHU216HW,2014-03-07 09:21:00,
2014-03-07 04:26:00,-10.8,-20.3,30.30,NNW,338,0.0,0.0,62,0.00,,,0.00,WUHU216HW,2014-03-07 09:26:00,
2014-03-07 04:31:00,-10.8,-20.3,30.30,North,0,0.0,0.0,62,0.00,,,0.00,WUHU216HW,2014-03-07 09:31:00,
2014-03-07 04:36:00,-11.0,-20.5,30.29,NNW,338,0.0,0.0,62,0.00,,,0.00,WUHU216HW,2014-03-07 09:36:00,
2014-03-07 04:41:00,-11.2,-20.7,30.30,NW,315,0.0,0.2,62,0.00,,,0.00,WUHU216HW,2014-03-07 09:41:00,
2014-03-07 04:46:00,-11.2,-20.7,30.30,SE,135,0.0,0.2,62,0.00,,,0.00,WUHU216HW,2014-03-07 09:46:00,
2014-03-07 04:51:00,-11.2,-20.7,30.29,NE,45,0.0,0.2,62,0.00,,,0.00,WUHU216HW,2014-03-07 09:51:00,
2014-03-07 04:56:00,-11.3,-20.9,30.29,NNE,23,0.0,0.4,62,0.00,,,0.00,WUHU216HW,2014-03-07 09:56:00,
2014-03-07 05:01:00,-11.2,-20.7,30.28,NNW,338,0.0,0.4,62,0.00,,,0.00,WUHU216HW,2014-03-07 10:01:00,
2014-03-07 05:06:00,-11.9,-20.8,30.28,NNW,338,0.2,1.1,64,0.00,,,0.00,WUHU216HW,2014-03-07 10:06:00,
2014-03-07 05:11:00,-12.1,-21.2,30.28,SSW,203,0.0,1.1,63,0.00,,,0.00,WUHU216HW,2014-03-07 10:11:00,
2014-03-07 05:16:00,-11.9,-21.0,30.28,NW,315,0.0,0.4,63,0.00,,,0.00,WUHU216HW,2014-03-07 10:16:00,
2014-03-07 05:21:00,-11.9,-21.0,30.28,NNW,338,0.0,0.0,63,0.00,,,0.00,WUHU216HW,2014-03-07 10:21:00,
2014-03-07 05:26:00,-11.9,-21.0,30.28,North,0,0.2,0.2,63,0.00,,,0.00,WUHU216HW,2014-03-07 10:26:00,
2014-03-07 05:31:00,-11.9,-21.0,30.28,NNW,338,0.0,0.2,63,0.00,,,0.00,WUHU216HW,2014-03-07 10:31:00,
2014-03-07 05:36:00,-12.1,-21.2,30.28,NNE,23,0.0,0.4,63,0.00,,,0.00,WUHU216HW,2014-03-07 10:36:00,
2014-03-07 05:41:00,-12.1,-21.2,30.28,NNE,23,0.0,0.4,63,0.00,,,0.00,WUHU216HW,2014-03-07 10:41:00,
2014-03-07 05:46:00,-12.1,-21.2,30.28,NNE,23,0.0,0.2,63,0.00,,,0.00,WUHU216HW,2014-03-07 10:46:00,
2014-03-07 05:51:00,-11.9,-21.0,30.28,NNW,338,0.0,0.2,63,0.00,,,0.00,WUHU216HW,2014-03-07 10:51:00,
2014-03-07 05:56:00,-11.9,-21.0,30.28,NNW,338,0.0,0.4,63,0.00,,,0.00,WUHU216HW,2014-03-07 10:56:00,
2014-03-07 06:01:00,-12.1,-21.2,30.28,NW,315,0.0,0.4,63,0.00,,,0.00,WUHU216HW,2014-03-07 11:01:00,
2014-03-07 06:06:00,-12.4,-21.6,30.28,NW,315,0.9,0.9,63,0.00,,,0.00,WUHU216HW,2014-03-07 11:06:00,
2014-03-07 06:11:00,-12.4,-21.6,30.28,North,0,0.0,0.9,63,0.00,,,0.00,WUHU216HW,2014-03-07 11:11:00,
2014-03-07 06:16:00,-12.4,-21.6,30.28,North,0,0.0,0.9,63,0.00,,,0.00,WUHU216HW,2014-03-07 11:16:00,
2014-03-07 06:21:00,-12.6,-21.8,30.28,North,0,0.0,0.2,63,0.00,,,0.00,WUHU216HW,2014-03-07 11:21:00,
2014-03-07 06:26:00,-12.6,-21.8,30.28,NNW,338,0.0,0.2,63,0.00,,,0.00,WUHU216HW,2014-03-07 11:26:00,
2014-03-07 06:31:00,-12.8,-22.0,30.28,North,0,0.7,0.9,63,0.00,,,0.00,WUHU216HW,2014-03-07 11:31:00,
2014-03-07 06:36:00,-13.3,-22.1,30.28,NNE,23,0.0,0.9,64,0.00,,,0.00,WUHU216HW,2014-03-07 11:36:00,
2014-03-07 06:41:00,-13.3,-22.1,30.28,ESE,113,0.2,0.7,64,0.00,,,0.00,WUHU216HW,2014-03-07 11:41:00,
2014-03-07 06:46:00,-12.8,-21.6,30.28,SE,135,0.0,0.7,64,0.00,,,0.00,WUHU216HW,2014-03-07 11:46:00,
2014-03-07 06:51:00,-12.2,-21.1,30.27,SE,135,0.0,0.7,64,0.00,,,0.00,WUHU216HW,2014-03-07 11:51:00,
2014-03-07 06:56:00,-11.3,-20.2,30.26,SE,135,0.0,0.7,64,0.00,,,0.00,WUHU216HW,2014-03-07 11:56:00,
2014-03-07 07:01:00,-10.6,-19.6,30.26,North,0,0.0,0.0,64,0.00,,,0.00,WUHU216HW,2014-03-07 12:01:00,
2014-03-07 07:06:00,-10.3,-19.0,30.27,East,90,0.7,0.7,65,0.00,,,0.00,WUHU216HW,2014-03-07 12:06:00,
2014-03-07 07:11:00,-10.3,-19.0,30.27,SSE,158,2.0,2.5,65,0.00,,,0.00,WUHU216HW,2014-03-07 12:11:00,
2014-03-07 07:16:00,-9.5,-18.3,30.27,SSE,158,0.0,2.5,65,0.00,,,0.00,WUHU216HW,2014-03-07 12:16:00,
2014-03-07 07:21:00,-9.0,-17.7,30.27,NW,315,0.4,2.0,65,0.00,,,0.00,WUHU216HW,2014-03-07 12:21:00,
2014-03-07 07:26:00,-8.1,-16.8,30.27,SW,225,2.5,2.5,65,0.00,,,0.00,WUHU216HW,2014-03-07 12:26:00,
2014-03-07 07:31:00,-7.4,-15.8,30.27,West,270,0.9,2.5,66,0.00,,,0.00,WUHU216HW,2014-03-07 12:31:00,
2014-03-07 07:36:00,-6.5,-15.0,30.27,WSW,248,0.2,2.5,66,0.00,,,0.00,WUHU216HW,2014-03-07 12:36:00,
2014-03-07 07:41:00,-5.4,-14.0,30.27,SSW,203,1.8,2.5,66,0.00,,,0.00,WUHU216HW,2014-03-07 12:41:00,
2014-03-07 07:46:00,-4.7,-13.6,30.27,SW,225,1.1,2.5,65,0.00,,,0.00,WUHU216HW,2014-03-07 12:46:00,
2014-03-07 07:51:00,-4.1,-13.0,30.26,WSW,248,1.3,2.7,65,0.00,,,0.00,WUHU216HW,2014-03-07 12:51:00,
2014-03-07 07:56:00,-3.8,-13.0,30.27,West,270,2.5,2.7,64,0.00,,,0.00,WUHU216HW,2014-03-07 12:56:00,
2014-03-07 08:01:00,-3.1,-12.3,30.26,WSW,248,1.8,2.9,64,0.00,,,0.00,WUHU216HW,2014-03-07 13:01:00,
2014-03-07 08:06:00,-2.2,-11.2,30.26,West,270,1.1,2.9,65,0.00,,,0.00,WUHU216HW,2014-03-07 13:06:00,
2014-03-07 08:11:00,-1.8,-11.2,30.26,West,270,0.9,2.9,64,0.00,,,0.00,WUHU216HW,2014-03-07 13:11:00,
2014-03-07 08:16:00,-0.7,-9.8,30.26,WSW,248,0.9,2.5,65,0.00,,,0.00,WUHU216HW,2014-03-07 13:16:00,
2014-03-07 08:21:00,0.2,-9.3,30.26,West,270,0.4,3.1,64,0.00,,,0.00,WUHU216HW,2014-03-07 13:21:00,
2014-03-07 08:26:00,0.9,-8.5,30.27,SW,225,1.1,3.1,64,0.00,,,0.00,WUHU216HW,2014-03-07 13:26:00,
2014-03-07 08:31:00,1.8,-7.7,30.26,SSE,158,2.0,2.5,64,0.00,,,0.00,WUHU216HW,2014-03-07 13:31:00,
2014-03-07 08:36:00,2.3,-7.2,30.26,SSW,203,1.1,2.5,64,0.00,,,0.00,WUHU216HW,2014-03-07 13:36:00,
2014-03-07 08:41:00,3.2,-6.3,30.25,SSE,158,0.4,2.0,64,0.00,,,0.00,WUHU216HW,2014-03-07 13:41:00,
2014-03-07 08:46:00,4.7,-4.9,30.26,SSW,203,1.1,1.1,64,0.00,,,0.00,WUHU216HW,2014-03-07 13:46:00,
2014-03-07 08:51:00,5.8,-4.2,30.25,South,180,0.9,1.3,63,0.00,,,0.00,WUHU216HW,2014-03-07 13:51:00,
2014-03-07 08:56:00,6.5,-3.5,30.25,South,180,1.3,1.8,63,0.00,,,0.00,WUHU216HW,2014-03-07 13:56:00,
2014-03-07 09:01:00,7.2,-3.1,30.24,SSW,203,1.1,1.8,62,0.00,,,0.00,WUHU216HW,2014-03-07 14:01:00,
2014-03-07 09:06:00,8.3,-1.8,30.25,SW,225,1.1,1.8,63,0.00,,,0.00,WUHU216HW,2014-03-07 14:06:00,
2014-03-07 09:11:00,9.7,-0.8,30.24,SW,225,1.3,1.8,62,0.00,,,0.00,WUHU216HW,2014-03-07 14:11:00,
2014-03-07 09:16:00,10.3,-0.5,30.24,SW,225,1.8,2.5,61,0.00,,,0.00,WUHU216HW,2014-03-07 14:16:00,
2014-03-07 09:21:00,10.3,-0.9,30.24,SW,225,2.2,2.5,60,0.00,,,0.00,WUHU216HW,2014-03-07 14:21:00,
2014-03-07 09:26:00,10.3,-1.2,30.23,SSW,203,1.8,2.5,59,0.00,,,0.00,WUHU216HW,2014-03-07 14:26:00,
2014-03-07 09:31:00,10.8,-0.8,30.23,SW,225,1.3,2.5,59,0.00,,,0.00,WUHU216HW,2014-03-07 14:31:00,
2014-03-07 09:36:00,11.0,-1.3,30.23,SSW,203,2.0,2.5,57,0.00,,,0.00,WUHU216HW,2014-03-07 14:36:00,
2014-03-07 09:41:00,11.7,-0.4,30.23,SSW,203,2.2,2.5,58,0.00,,,0.00,WUHU216HW,2014-03-07 14:41:00,
2014-03-07 09:46:00,13.0,0.8,30.22,SSW,203,1.1,2.5,58,0.00,,,0.00,WUHU216HW,2014-03-07 14:46:00,
2014-03-07 09:51:00,14.2,2.1,30.22,SW,225,0.9,2.2,58,0.00,,,0.00,WUHU216HW,2014-03-07 14:51:00,
2014-03-07 09:56:00,15.3,2.7,30.22,SSW,203,1.1,1.3,57,0.00,,,0.00,WUHU216HW,2014-03-07 14:56:00,
2014-03-07 10:01:00,15.8,2.1,30.22,SSW,203,0.4,1.8,54,0.00,,,0.00,WUHU216HW,2014-03-07 15:01:00,
2014-03-07 10:06:00,16.4,3.0,30.22,SSW,203,1.1,1.8,55,0.00,,,0.00,WUHU216HW,2014-03-07 15:06:00,
2014-03-07 10:11:00,17.3,3.4,30.21,SW,225,1.8,2.0,54,0.00,,,0.00,WUHU216HW,2014-03-07 15:11:00,
2014-03-07 10:16:00,17.1,2.9,30.20,SW,225,1.3,2.5,53,0.00,,,0.00,WUHU216HW,2014-03-07 15:16:00,
2014-03-07 10:21:00,17.6,3.3,30.20,SSW,203,0.0,2.5,53,0.00,,,0.00,WUHU216HW,2014-03-07 15:21:00,
2014-03-07 10:26:00,18.4,3.6,30.20,SSW,203,2.2,2.5,52,0.00,,,0.00,WUHU216HW,2014-03-07 15:26:00,
2014-03-07 10:31:00,19.3,4.4,30.19,South,180,2.5,2.5,52,0.00,,,0.00,WUHU216HW,2014-03-07 15:31:00,
2014-03-07 10:36:00,20.5,5.6,30.18,SSE,158,0.9,2.5,52,0.00,,,0.00,WUHU216HW,2014-03-07 15:36:00,
2014-03-07 10:41:00,21.6,6.2,30.18,SSW,203,0.2,2.5,51,0.00,,,0.00,WUHU216HW,2014-03-07 15:41:00,
2014-03-07 10:46:00,22.5,7.0,30.17,SSW,203,0.0,1.6,51,0.00,,,0.00,WUHU216HW,2014-03-07 15:46:00,
2014-03-07 10:51:00,22.9,7.0,30.17,West,270,0.2,0.4,50,0.00,,,0.00,WUHU216HW,2014-03-07 15:51:00,
2014-03-07 10:56:00,23.8,7.8,30.17,SSE,158,1.3,1.8,50,0.00,,,0.00,WUHU216HW,2014-03-07 15:56:00,
2014-03-07 11:01:00,24.8,8.4,30.16,SSW,203,0.7,2.0,49,0.00,,,0.00,WUHU216HW,2014-03-07 16:01:00,
2014-03-07 11:06:00,25.9,8.8,30.16,ESE,113,0.0,2.0,48,0.00,,,0.00,WUHU216HW,2014-03-07 16:06:00,
2014-03-07 11:11:00,27.4,10.2,30.15,West,270,1.1,1.1,48,0.00,,,0.00,WUHU216HW,2014-03-07 16:11:00,
2014-03-07 11:16:00,28.3,9.5,30.15,NNW,338,0.4,2.2,45,0.00,,,0.00,WUHU216HW,2014-03-07 16:16:00,
2014-03-07 11:21:00,29.0,9.7,30.15,WSW,248,2.0,2.2,44,0.00,,,0.00,WUHU216HW,2014-03-07 16:21:00,
2014-03-07 11:26:00,29.5,10.2,30.14,WSW,248,0.4,2.0,44,0.00,,,0.00,WUHU216HW,2014-03-07 16:26:00,
2014-03-07 11:31:00,30.4,8.4,30.14,East,90,0.4,2.0,39,0.00,,,0.00,WUHU216HW,2014-03-07 16:31:00,
2014-03-07 11:36:00,31.0,10.0,30.13,SSW,203,4.5,4.5,41,0.00,,,0.00,WUHU216HW,2014-03-07 16:36:00,
2014-03-07 11:41:00,31.3,7.9,30.12,South,180,8.7,9.8,37,0.00,,,0.00,WUHU216HW,2014-03-07 16:41:00,
2014-03-07 11:46:00,31.5,7.5,30.12,SSW,203,6.3,9.8,36,0.00,,,0.00,WUHU216HW,2014-03-07 16:46:00,
2014-03-07 11:51:00,31.7,6.9,30.12,South,180,8.5,8.7,35,0.00,,,0.00,WUHU216HW,2014-03-07 16:51:00,
2014-03-07 11:56:00,32.0,7.3,30.11,SSW,203,4.0,8.9,35,0.00,,,0.00,WUHU216HW,2014-03-07 16:56:00,
2014-03-07 12:01:00,32.6,6.5,30.11,South,180,6.7,9.8,33,0.00,,,0.00,WUHU216HW,2014-03-07 17:01:00,
2014-03-07 12:06:00,32.8,6.7,30.11,South,180,5.1,10.3,33,0.00,,,0.00,WUHU216HW,2014-03-07 17:06:00,
2014-03-07 12:11:00,32.9,5.6,30.10,SW,225,6.3,10.7,31,0.00,,,0.00,WUHU216HW,2014-03-07 17:11:00,
2014-03-07 12:16:00,33.3,4.4,30.10,SSW,203,8.5,10.7,29,0.00,,,0.00,WUHU216HW,2014-03-07 17:16:00,
2014-03-07 12:21:00,33.5,6.0,30.10,SW,225,4.0,10.7,31,0.00,,,0.00,WUHU216HW,2014-03-07 17:21:00,
2014-03-07 12:26:00,33.8,5.8,30.10,South,180,8.5,10.7,30,0.00,,,0.00,WUHU216HW,2014-03-07 17:26:00,
2014-03-07 12:31:00,34.2,6.0,30.09,SSW,203,9.8,10.1,30,0.00,,,0.00,WUHU216HW,2014-03-07 17:31:00,
2014-03-07 12:36:00,34.4,4.4,30.09,WSW,248,6.3,9.8,28,0.00,,,0.00,WUHU216HW,2014-03-07 17:36:00,
2014-03-07 12:41:00,34.9,5.8,30.08,SSW,203,5.4,9.8,29,0.00,,,0.00,WUHU216HW,2014-03-07 17:41:00,
2014-03-07 12:46:00,35.3,6.9,30.08,SW,225,4.3,7.6,30,0.00,,,0.00,WUHU216HW,2014-03-07 17:46:00,
2014-03-07 12:51:00,35.6,5.5,30.07,SSW,203,4.7,6.9,28,0.00,,,0.00,WUHU216HW,2014-03-07 17:51:00,
2014-03-07 12:56:00,35.8,6.5,30.07,SSW,203,5.1,7.4,29,0.00,,,0.00,WUHU216HW,2014-03-07 17:56:00,
2014-03-07 13:01:00,36.0,5.0,30.06,SSE,158,5.8,8.5,27,0.00,,,0.00,WUHU216HW,2014-03-07 18:01:00,
2014-03-07 13:06:00,36.4,6.1,30.06,South,180,6.9,8.5,28,0.00,,,0.00,WUHU216HW,2014-03-07 18:06:00,
2014-03-07 13:11:00,36.4,6.1,30.05,SSW,203,7.2,9.2,28,0.00,,,0.00,WUHU216HW,2014-03-07 18:11:00,
2014-03-07 13:16:00,36.5,4.5,30.05,SW,225,4.9,10.7,26,0.00,,,0.00,WUHU216HW,2014-03-07 18:16:00,
2014-03-07 13:21:00,36.7,5.6,30.05,SSW,203,7.2,10.7,27,0.00,,,0.00,WUHU216HW,2014-03-07 18:21:00,
2014-03-07 13:26:00,37.1,5.9,30.05,WSW,248,3.4,10.5,27,0.00,,,0.00,WUHU216HW,2014-03-07 18:26:00,
2014-03-07 13:31:00,37.3,3.4,30.05,SW,225,9.8,9.8,24,0.00,,,0.00,WUHU216HW,2014-03-07 18:31:00,
2014-03-07 13:36:00,37.6,6.3,30.05,SW,225,9.8,9.8,27,0.00,,,0.00,WUHU216HW,2014-03-07 18:36:00,
2014-03-07 13:41:00,37.8,5.6,30.04,South,180,7.8,9.8,26,0.00,,,0.00,WUHU216HW,2014-03-07 18:41:00,
2014-03-07 13:46:00,38.2,4.2,30.04,SSW,203,5.4,11.4,24,0.00,,,0.00,WUHU216HW,2014-03-07 18:46:00,
2014-03-07 13:51:00,38.3,4.3,30.04,SSW,203,9.2,11.4,24,0.00,,,0.00,WUHU216HW,2014-03-07 18:51:00,
2014-03-07 13:56:00,38.5,7.1,30.04,SSW,203,6.3,10.5,27,0.00,,,0.00,WUHU216HW,2014-03-07 18:56:00,
2014-03-07 14:01:00,39.1,8.5,30.04,SSW,203,3.8,9.8,28,0.00,,,0.00,WUHU216HW,2014-03-07 19:01:00,
2014-03-07 14:06:00,39.4,7.9,30.04,SSW,203,9.2,9.2,27,0.00,,,0.00,WUHU216HW,2014-03-07 19:06:00,
2014-03-07 14:11:00,39.8,6.4,30.04,SW,225,3.1,9.2,25,0.00,,,0.00,WUHU216HW,2014-03-07 19:11:00,
2014-03-07 14:16:00,40.0,8.4,30.03,SSE,158,2.9,9.2,27,0.00,,,0.00,WUHU216HW,2014-03-07 19:16:00,
2014-03-07 14:21:00,40.3,8.7,30.03,SSW,203,9.4,9.6,27,0.00,,,0.00,WUHU216HW,2014-03-07 19:21:00,
2014-03-07 14:26:00,40.3,8.7,30.03,SSW,203,7.8,9.6,27,0.00,,,0.00,WUHU216HW,2014-03-07 19:26:00,
2014-03-07 14:31:00,40.3,6.9,30.02,South,180,10.3,10.3,25,0.00,,,0.00,WUHU216HW,2014-03-07 19:31:00,
2014-03-07 14:36:00,40.5,8.9,30.02,SSW,203,3.6,10.3,27,0.00,,,0.00,WUHU216HW,2014-03-07 19:36:00,
2014-03-07 14:41:00,40.7,5.4,30.02,SSW,203,6.3,10.3,23,0.00,,,0.00,WUHU216HW,2014-03-07 19:41:00,
2014-03-07 14:46:00,40.7,5.4,30.02,SSW,203,6.7,9.8,23,0.00,,,0.00,WUHU216HW,2014-03-07 19:46:00,
2014-03-07 14:51:00,40.3,5.1,30.01,WSW,248,8.1,9.8,23,0.00,,,0.00,WUHU216HW,2014-03-07 19:51:00,
2014-03-07 14:56:00,40.3,5.1,30.01,West,270,3.4,9.8,23,0.00,,,0.00,WUHU216HW,2014-03-07 19:56:00,
2014-03-07 15:01:00,40.1,5.9,30.01,West,270,4.3,8.5,24,0.00,,,0.00,WUHU216HW,2014-03-07 20:01:00,
2014-03-07 15:06:00,40.3,4.2,30.01,WSW,248,5.4,8.5,22,0.00,,,0.00,WUHU216HW,2014-03-07 20:06:00,
2014-03-07 15:11:00,40.5,6.2,30.00,WSW,248,4.7,8.5,24,0.00,,,0.00,WUHU216HW,2014-03-07 20:11:00,
2014-03-07 15:16:00,40.1,6.8,30.00,WSW,248,2.5,9.8,25,0.00,,,0.00,WUHU216HW,2014-03-07 20:16:00,
2014-03-07 15:21:00,40.1,6.8,30.00,SW,225,5.1,9.8,25,0.00,,,0.00,WUHU216HW,2014-03-07 20:21:00,
2014-03-07 15:26:00,40.0,6.6,29.99,SW,225,7.6,7.6,25,0.00,,,0.00,WUHU216HW,2014-03-07 20:26:00,
2014-03-07 15:31:00,39.8,6.4,29.99,WSW,248,4.7,9.6,25,0.00,,,0.00,WUHU216HW,2014-03-07 20:31:00,
2014-03-07 15:36:00,39.8,6.4,29.99,WSW,248,3.4,9.6,25,0.00,,,0.00,WUHU216HW,2014-03-07 20:36:00,
2014-03-07 15:41:00,39.8,6.4,29.98,SW,225,5.6,9.8,25,0.00,,,0.00,WUHU216HW,2014-03-07 20:41:00,
2014-03-07 15:46:00,39.8,6.4,29.99,SW,225,9.2,9.8,25,0.00,,,0.00,WUHU216HW,2014-03-07 20:46:00,
2014-03-07 15:51:00,39.8,6.4,29.98,SSW,203,4.5,9.2,25,0.00,,,0.00,WUHU216HW,2014-03-07 20:51:00,
2014-03-07 15:56:00,39.6,6.3,29.98,WSW,248,4.0,9.2,25,0.00,,,0.00,WUHU216HW,2014-03-07 20:56:00,
2014-03-07 16:01:00,39.4,6.1,29.98,SW,225,6.3,9.2,25,0.00,,,0.00,WUHU216HW,2014-03-07 21:01:00,
2014-03-07 16:06:00,39.6,6.3,29.97,SW,225,6.9,9.2,25,0.00,,,0.00,WUHU216HW,2014-03-07 21:06:00,
2014-03-07 16:11:00,39.4,6.1,29.97,South,180,6.3,9.2,25,0.00,,,0.00,WUHU216HW,2014-03-07 21:11:00,
2014-03-07 16:16:00,39.2,5.9,29.97,SSW,203,6.3,9.2,25,0.00,,,0.00,WUHU216HW,2014-03-07 21:16:00,
2014-03-07 16:21:00,39.2,5.9,29.97,SW,225,4.9,7.8,25,0.00,,,0.00,WUHU216HW,2014-03-07 21:21:00,
2014-03-07 16:26:00,39.1,5.8,29.97,SW,225,4.0,6.7,25,0.00,,,0.00,WUHU216HW,2014-03-07 21:26:00,
2014-03-07 16:31:00,38.9,6.6,29.96,SW,225,4.3,6.7,26,0.00,,,0.00,WUHU216HW,2014-03-07 21:31:00,
2014-03-07 16:36:00,38.9,7.5,29.96,SW,225,2.2,6.9,27,0.00,,,0.00,WUHU216HW,2014-03-07 21:36:00,
2014-03-07 16:41:00,38.7,7.3,29.96,SW,225,6.0,6.9,27,0.00,,,0.00,WUHU216HW,2014-03-07 21:41:00,
2014-03-07 16:46:00,38.5,6.2,29.95,WSW,248,7.2,7.2,26,0.00,,,0.00,WUHU216HW,2014-03-07 21:46:00,
2014-03-07 16:51:00,38.5,7.1,29.95,WSW,248,3.4,10.1,27,0.00,,,0.00,WUHU216HW,2014-03-07 21:51:00,
2014-03-07 16:56:00,38.2,6.0,29.95,SW,225,4.5,10.1,26,0.00,,,0.00,WUHU216HW,2014-03-07 21:56:00,
2014-03-07 17:01:00,38.2,6.0,29.95,West,270,2.0,7.6,26,0.00,,,0.00,WUHU216HW,2014-03-07 22:01:00,
2014-03-07 17:06:00,37.8,5.6,29.95,WSW,248,1.6,7.6,26,0.00,,,0.00,WUHU216HW,2014-03-07 22:06:00,
2014-03-07 17:11:00,37.4,6.2,29.95,SW,225,2.5,4.9,27,0.00,,,0.00,WUHU216HW,2014-03-07 22:11:00,
2014-03-07 17:16:00,37.1,5.9,29.95,West,270,1.8,4.9,27,0.00,,,0.00,WUHU216HW,2014-03-07 22:16:00,
2014-03-07 17:21:00,36.7,5.6,29.95,WNW,293,1.8,2.5,27,0.00,,,0.00,WUHU216HW,2014-03-07 22:21:00,
2014-03-07 17:26:00,36.2,5.9,29.95,WSW,248,2.5,2.5,28,0.00,,,0.00,WUHU216HW,2014-03-07 22:26:00,
2014-03-07 17:31:00,35.6,5.5,29.95,West,270,1.8,2.5,28,0.00,,,0.00,WUHU216HW,2014-03-07 22:31:00,
2014-03-07 17:36:00,34.9,4.9,29.95,WNW,293,1.6,2.5,28,0.00,,,0.00,WUHU216HW,2014-03-07 22:36:00,
2014-03-07 17:41:00,34.6,5.5,29.95,WNW,293,1.1,2.5,29,0.00,,,0.00,WUHU216HW,2014-03-07 22:41:00,
2014-03-07 17:46:00,34.0,5.1,29.94,South,180,2.5,3.4,29,0.00,,,0.00,WUHU216HW,2014-03-07 22:46:00,
2014-03-07 17:51:00,32.8,4.8,29.94,South,180,0.7,3.4,30,0.00,,,0.00,WUHU216HW,2014-03-07 22:51:00,
2014-03-07 17:56:00,32.0,4.8,29.94,WSW,248,1.1,2.5,31,0.00,,,0.00,WUHU216HW,2014-03-07 22:56:00,
2014-03-07 18:01:00,31.7,4.4,29.94,SSW,203,3.4,3.4,31,0.00,,,0.00,WUHU216HW,2014-03-07 23:01:00,
2014-03-07 18:06:00,31.7,5.0,29.94,SW,225,4.0,5.6,32,0.00,,,0.00,WUHU216HW,2014-03-07 23:06:00,
2014-03-07 18:11:00,31.5,5.0,29.94,SSW,203,4.5,5.6,32,0.00,,,0.00,WUHU216HW,2014-03-07 23:11:00,
2014-03-07 18:16:00,31.3,4.8,29.94,SSW,203,4.0,4.7,32,0.00,,,0.00,WUHU216HW,2014-03-07 23:16:00,
2014-03-07 18:21:00,30.8,4.2,29.94,SSW,203,3.1,4.7,32,0.00,,,0.00,WUHU216HW,2014-03-07 23:21:00,
2014-03-07 18:26:00,30.4,4.6,29.94,SSW,203,5.4,5.4,33,0.00,,,0.00,WUHU216HW,2014-03-07 23:26:00,
2014-03-07 18:31:00,30.6,4.8,29.94,SSW,203,4.7,6.0,33,0.00,,,0.00,WUHU216HW,2014-03-07 23:31:00,
2014-03-07 18:36:00,30.6,4.8,29.94,NNW,338,1.1,6.0,33,0.00,,,0.00,WUHU216HW,2014-03-07 23:36:00,
2014-03-07 18:41:00,29.5,5.1,29.94,North,0,1.1,4.7,35,0.00,,,0.00,WUHU216HW,2014-03-07 23:41:00,
2014-03-07 18:46:00,28.4,5.3,29.94,NE,45,2.5,2.5,37,0.00,,,0.00,WUHU216HW,2014-03-07 23:46:00,
2014-03-07 18:51:00,28.1,4.3,29.94,SSE,158,0.7,3.1,36,0.00,,,0.00,WUHU216HW,2014-03-07 23:51:00,
2014-03-07 18:56:00,27.7,4.7,29.94,SSE,158,0.4,3.1,37,0.00,,,0.00,WUHU216HW,2014-03-07 23:56:00,
2014-03-07 19:01:00,27.2,4.1,29.94,NNE,23,1.6,2.9,37,0.00,,,0.00,WUHU216HW,2014-03-08 00:01:00,
2014-03-07 19:06:00,26.8,4.5,29.94,North,0,1.3,2.5,38,0.00,,,0.00,WUHU216HW,2014-03-08 00:06:00,
2014-03-07 19:11:00,26.6,4.3,29.95,NNW,338,0.4,2.5,38,0.00,,,0.00,WUHU216HW,2014-03-08 00:11:00,
2014-03-07 19:16:00,26.3,4.0,29.94,SSE,158,2.2,2.2,38,0.00,,,0.00,WUHU216HW,2014-03-08 00:16:00,
2014-03-07 19:21:00,25.7,4.1,29.94,NNE,23,1.1,2.7,39,0.00,,,0.00,WUHU216HW,2014-03-08 00:21:00,
2014-03-07 19:26:00,25.2,3.7,29.94,North,0,0.4,2.7,39,0.00,,,0.00,WUHU216HW,2014-03-08 00:26:00,
2014-03-07 19:31:00,25.2,4.8,29.94,North,0,0.9,1.1,41,0.00,,,0.00,WUHU216HW,2014-03-08 00:31:00,
2014-03-07 19:36:00,25.4,4.4,29.94,North,0,0.0,1.8,40,0.00,,,0.00,WUHU216HW,2014-03-08 00:36:00,
2014-03-07 19:41:00,25.0,4.2,29.94,ESE,113,0.4,1.8,40,0.00,,,0.00,WUHU216HW,2014-03-08 00:41:00,
2014-03-07 19:46:00,24.8,4.4,29.94,NNW,338,0.7,1.1,41,0.00,,,0.00,WUHU216HW,2014-03-08 00:46:00,
2014-03-07 19:51:00,24.8,4.0,29.94,SSW,203,0.9,2.5,40,0.00,,,0.00,WUHU216HW,2014-03-08 00:51:00,
2014-03-07 19:56:00,24.7,4.3,29.94,SW,225,0.4,2.5,41,0.00,,,0.00,WUHU216HW,2014-03-08 00:56:00,
2014-03-07 20:01:00,24.5,4.2,29.93,West,270,0.0,2.5,41,0.00,,,0.00,WUHU216HW,2014-03-08 01:01:00,
2014-03-07 20:06:00,24.3,4.4,29.93,West,270,0.0,0.9,42,0.00,,,0.00,WUHU216HW,2014-03-08 01:06:00,
2014-03-07 20:11:00,24.1,4.3,29.93,West,270,0.0,0.0,42,0.00,,,0.00,WUHU216HW,2014-03-08 01:11:00,
2014-03-07 20:16:00,23.9,4.6,29.93,North,0,0.4,0.4,43,0.00,,,0.00,WUHU216HW,2014-03-08 01:16:00,
2014-03-07 20:21:00,23.4,5.1,29.93,NNW,338,0.4,0.9,45,0.00,,,0.00,WUHU216HW,2014-03-08 01:21:00,
2014-03-07 20:26:00,23.0,4.8,29.93,North,0,0.0,1.1,45,0.00,,,0.00,WUHU216HW,2014-03-08 01:26:00,
2014-03-07 20:31:00,22.7,4.0,29.92,SSE,158,0.0,1.1,44,0.00,,,0.00,WUHU216HW,2014-03-08 01:31:00,
2014-03-07 20:36:00,22.3,4.1,29.92,NNW,338,0.7,0.9,45,0.00,,,0.00,WUHU216HW,2014-03-08 01:36:00,
2014-03-07 20:41:00,22.0,4.2,29.92,SSW,203,0.2,1.1,46,0.00,,,0.00,WUHU216HW,2014-03-08 01:41:00,
2014-03-07 20:46:00,21.8,3.6,29.92,North,0,0.4,2.7,45,0.00,,,0.00,WUHU216HW,2014-03-08 01:46:00,
2014-03-07 20:51:00,21.4,3.7,29.92,SW,225,0.2,2.7,46,0.00,,,0.00,WUHU216HW,2014-03-08 01:51:00,
2014-03-07 20:56:00,21.2,4.0,29.92,NNW,338,0.7,1.8,47,0.00,,,0.00,WUHU216HW,2014-03-08 01:56:00,
2014-03-07 21:01:00,21.1,4.3,29.92,North,0,1.1,1.8,48,0.00,,,0.00,WUHU216HW,2014-03-08 02:01:00,
2014-03-07 21:06:00,21.2,5.0,29.92,North,0,0.0,1.8,49,0.00,,,0.00,WUHU216HW,2014-03-08 02:06:00,
2014-03-07 21:11:00,21.2,4.5,29.91,WNW,293,0.0,1.1,48,0.00,,,0.00,WUHU216HW,2014-03-08 02:11:00,
2014-03-07 21:16:00,20.7,4.0,29.91,NNW,338,0.2,0.7,48,0.00,,,0.00,WUHU216HW,2014-03-08 02:16:00,
2014-03-07 21:21:00,20.7,5.0,29.91,NNW,338,0.0,1.1,50,0.00,,,0.00,WUHU216HW,2014-03-08 02:21:00,
2014-03-07 21:26:00,20.7,4.4,29.91,SW,225,0.0,1.1,49,0.00,,,0.00,WUHU216HW,2014-03-08 02:26:00,
2014-03-07 21:31:00,20.5,3.8,29.91,West,270,0.0,0.9,48,0.00,,,0.00,WUHU216HW,2014-03-08 02:31:00,
2014-03-07 21:36:00,20.2,4.9,29.91,North,0,0.9,1.1,51,0.00,,,0.00,WUHU216HW,2014-03-08 02:36:00,
2014-03-07 21:41:00,20.2,5.2,29.91,North,0,0.7,2.0,52,0.00,,,0.00,WUHU216HW,2014-03-08 02:41:00,
2014-03-07 21:46:00,20.5,5.1,29.90,ENE,68,1.1,2.0,51,0.00,,,0.00,WUHU216HW,2014-03-08 02:46:00,
2014-03-07 21:51:00,20.0,4.2,29.90,ENE,68,0.7,1.8,50,0.00,,,0.00,WUHU216HW,2014-03-08 02:51:00,
2014-03-07 21:56:00,19.6,4.3,29.91,SE,135,0.0,1.8,51,0.00,,,0.00,WUHU216HW,2014-03-08 02:56:00,
2014-03-07 22:01:00,19.6,4.3,29.90,ESE,113,0.0,1.1,51,0.00,,,0.00,WUHU216HW,2014-03-08 03:01:00,
2014-03-07 22:06:00,19.4,4.1,29.90,SSW,203,0.0,1.1,51,0.00,,,0.00,WUHU216HW,2014-03-08 03:06:00,
2014-03-07 22:11:00,19.4,4.6,29.90,ENE,68,0.9,1.1,52,0.00,,,0.00,WUHU216HW,2014-03-08 03:11:00,
2014-03-07 22:16:00,19.3,4.1,29.89,North,0,0.4,1.1,51,0.00,,,0.00,WUHU216HW,2014-03-08 03:16:00,
2014-03-07 22:21:00,19.1,4.2,29.89,WSW,248,0.4,1.1,52,0.00,,,0.00,WUHU216HW,2014-03-08 03:21:00,
2014-03-07 22:26:00,19.1,3.9,29.89,WNW,293,0.0,0.9,51,0.00,,,0.00,WUHU216HW,2014-03-08 03:26:00,
2014-03-07 22:31:00,19.1,4.2,29.88,NNW,338,0.0,0.4,52,0.00,,,0.00,WUHU216HW,2014-03-08 03:31:00,
2014-03-07 22:36:00,19.1,4.2,29.88,SSE,158,0.2,0.7,52,0.00,,,0.00,WUHU216HW,2014-03-08 03:36:00,
2014-03-07 22:41:00,19.1,3.9,29.88,WNW,293,0.0,0.9,51,0.00,,,0.00,WUHU216HW,2014-03-08 03:41:00,
2014-03-07 22:46:00,19.8,5.7,29.87,South,180,1.8,2.5,54,0.00,,,0.00,WUHU216HW,2014-03-08 03:46:00,
2014-03-07 22:51:00,22.7,8.0,29.87,SSW,203,7.6,7.6,53,0.00,,,0.00,WUHU216HW,2014-03-08 03:51:00,
2014-03-07 22:56:00,24.1,8.6,29.87,South,180,8.1,8.1,51,0.00,,,0.00,WUHU216HW,2014-03-08 03:56:00,
2014-03-07 23:01:00,25.6,9.5,29.87,South,180,5.1,8.3,50,0.00,,,0.00,WUHU216HW,2014-03-08 04:01:00,
2014-03-07 23:06:00,26.1,9.5,29.87,South,180,6.3,8.3,49,0.00,,,0.00,WUHU216HW,2014-03-08 04:06:00,
2014-03-07 23:11:00,26.8,9.6,29.87,SSW,203,7.4,8.1,48,0.00,,,0.00,WUHU216HW,2014-03-08 04:11:00,
2014-03-07 23:16:00,27.2,10.0,29.87,SSW,203,5.1,9.8,48,0.00,,,0.00,WUHU216HW,2014-03-08 04:16:00,
2014-03-07 23:21:00,27.0,9.4,29.86,West,270,2.5,9.8,47,0.00,,,0.00,WUHU216HW,2014-03-08 04:21:00,
2014-03-07 23:26:00,24.8,6.8,29.86,West,270,2.7,5.6,46,0.00,,,0.00,WUHU216HW,2014-03-08 04:26:00,
2014-03-07 23:31:00,23.4,5.6,29.86,West,270,2.2,5.6,46,0.00,,,0.00,WUHU216HW,2014-03-08 04:31:00,
2014-03-07 23:36:00,23.0,5.8,29.86,WSW,248,2.9,4.0,47,0.00,,,0.00,WUHU216HW,2014-03-08 04:36:00,
2014-03-07 23:41:00,23.2,6.4,29.86,West,270,3.4,3.8,48,0.00,,,0.00,WUHU216HW,2014-03-08 04:41:00,
2014-03-07 23:46:00,23.0,6.2,29.86,West,270,2.5,3.4,48,0.00,,,0.00,WUHU216HW,2014-03-08 04:46:00,
2014-03-07 23:51:00,22.7,5.9,29.85,NNW,338,0.4,3.4,48,0.00,,,0.00,WUHU216HW,2014-03-08 04:51:00,
2014-03-07 23:56:00,22.0,5.7,29.85,NNE,23,0.7,2.9,49,0.00,,,0.00,WUHU216HW,2014-03-08 04:56:00,